createdAt,value
2022-09-17T00:01:36.119Z,77.67
2022-09-17T00:11:45.356Z,77.68
2022-09-17T00:21:53.012Z,78.00
2022-09-17T00:32:00.178Z,78.00
2022-09-17T00:42:10.938Z,77.94
2022-09-17T00:52:18.796Z,78.26
2022-09-17T01:02:26.270Z,78.27
2022-09-17T01:12:47.905Z,78.53
2022-09-17T01:22:58.269Z,78.69
2022-09-17T01:33:12.669Z,78.72
2022-09-17T01:43:18.068Z,79.04
2022-09-17T01:53:26.956Z,79.10
2022-09-17T02:03:36.898Z,78.99
2022-09-17T02:13:42.215Z,79.18
2022-09-17T02:23:50.099Z,79.14
2022-09-17T02:34:02.502Z,79.18
2022-09-17T02:44:08.523Z,79.11
2022-09-17T02:54:19.485Z,78.86
2022-09-17T03:04:28.828Z,79.23
2022-09-17T03:14:36.564Z,79.40
2022-09-17T03:24:43.988Z,79.35
2022-09-17T03:34:50.561Z,79.35
2022-09-17T03:44:56.981Z,79.37
2022-09-17T03:55:05.109Z,79.13
2022-09-17T04:05:13.158Z,79.37
2022-09-17T04:15:20.228Z,79.15
2022-09-17T04:25:27.380Z,79.08
2022-09-17T04:35:33.643Z,79.55
2022-09-17T04:45:40.971Z,80.10
2022-09-17T04:55:48.987Z,80.29
2022-09-17T05:05:56.130Z,80.13
2022-09-17T05:16:03.678Z,80.17
2022-09-17T05:26:10.954Z,80.77
2022-09-17T05:36:18.573Z,79.21
2022-09-17T05:46:26.146Z,78.98
2022-09-17T05:56:33.500Z,78.85
2022-09-17T06:06:41.894Z,78.71
2022-09-17T06:16:49.253Z,78.83
2022-09-17T06:26:56.819Z,78.32
2022-09-17T06:37:04.155Z,78.08
2022-09-17T06:47:11.290Z,78.73
2022-09-17T06:57:18.452Z,77.12
2022-09-17T07:07:25.575Z,76.60
2022-09-17T07:17:33.123Z,76.80
2022-09-17T07:27:40.208Z,77.10
2022-09-17T07:37:47.636Z,77.59
2022-09-17T07:47:54.843Z,77.41
2022-09-17T07:58:02.216Z,76.87
2022-09-17T08:08:09.930Z,75.92
2022-09-17T08:18:17.734Z,75.53
2022-09-17T08:28:25.674Z,75.54
2022-09-17T08:38:38.028Z,74.46
2022-09-17T08:48:50.324Z,74.53
2022-09-17T08:59:00.958Z,73.97
2022-09-17T09:09:14.396Z,73.43
2022-09-17T09:19:21.436Z,73.43
2022-09-17T09:29:26.538Z,73.54
2022-09-17T09:39:41.187Z,73.93
2022-09-17T09:50:08.339Z,73.86
2022-09-17T10:00:29.335Z,73.79
2022-09-17T10:10:38.200Z,73.96
2022-09-17T10:20:58.295Z,73.76
2022-09-17T10:31:10.627Z,73.55
2022-09-17T10:41:22.033Z,73.02
2022-09-17T10:51:29.178Z,72.73
2022-09-17T11:01:35.811Z,72.89
2022-09-17T11:11:43.271Z,73.08
2022-09-17T11:21:50.958Z,73.28
2022-09-17T11:32:03.623Z,73.20
2022-09-17T11:42:12.064Z,73.24
2022-09-17T11:52:25.636Z,73.38
2022-09-17T12:02:35.426Z,73.31
2022-09-17T12:12:50.544Z,72.95
2022-09-17T12:22:58.526Z,73.23
2022-09-17T12:33:24.262Z,73.14
2022-09-17T12:43:44.737Z,73.36
2022-09-17T12:53:59.473Z,73.58
2022-09-17T13:04:15.954Z,73.69
2022-09-17T13:14:25.607Z,73.73
2022-09-17T13:24:34.686Z,73.62
2022-09-17T13:34:41.793Z,73.59
2022-09-17T13:44:53.535Z,73.41
2022-09-17T13:55:01.202Z,73.40
2022-09-17T14:05:35.751Z,73.14
2022-09-17T14:16:24.561Z,72.82
2022-09-17T14:27:04.355Z,72.80
2022-09-17T14:37:10.114Z,72.83
2022-09-17T14:47:18.874Z,72.78
2022-09-17T14:57:23.190Z,72.75
2022-09-17T15:07:30.533Z,73.04
2022-09-17T15:17:37.942Z,73.20
2022-09-17T15:27:47.302Z,73.31
2022-09-17T15:38:21.294Z,73.54
2022-09-17T15:48:39.731Z,74.08
2022-09-17T15:58:53.014Z,74.36
2022-09-17T16:09:01.035Z,74.46
2022-09-17T16:19:08.686Z,74.60
2022-09-17T16:29:15.638Z,74.86
2022-09-17T16:39:22.890Z,75.08
2022-09-17T16:49:30.469Z,75.25
2022-09-17T16:59:37.748Z,75.36
2022-09-17T17:09:45.192Z,75.48
2022-09-17T17:19:53.176Z,75.74
2022-09-17T17:29:59.984Z,75.67
2022-09-17T17:40:09.312Z,75.64
2022-09-17T17:50:16.179Z,75.74
2022-09-17T18:00:23.764Z,75.88
2022-09-17T18:10:43.458Z,76.27
2022-09-17T18:20:51.059Z,76.55
2022-09-17T18:30:59.301Z,76.76
2022-09-17T18:41:05.038Z,77.05
2022-09-17T18:51:13.167Z,77.36
2022-09-17T19:01:22.628Z,77.58
2022-09-17T19:11:30.810Z,77.63
2022-09-17T19:21:37.882Z,78.13
2022-09-17T19:31:45.322Z,78.33
2022-09-17T19:41:52.799Z,78.63
2022-09-17T19:52:00.565Z,78.84
2022-09-17T20:02:07.926Z,78.89
2022-09-17T20:12:15.585Z,79.19
2022-09-17T20:22:23.161Z,79.27
2022-09-17T20:32:30.513Z,79.45
2022-09-17T20:42:37.741Z,79.52
2022-09-17T20:52:45.351Z,79.72
2022-09-17T21:02:54.604Z,79.68
2022-09-17T21:13:01.210Z,80.02
2022-09-17T21:23:08.362Z,80.37
2022-09-17T21:33:22.129Z,80.40
2022-09-17T21:43:31.148Z,80.52
2022-09-17T21:53:39.008Z,80.73
2022-09-17T22:03:47.634Z,80.78
2022-09-17T22:13:59.109Z,80.86
2022-09-17T22:24:05.901Z,81.02
2022-09-17T22:34:14.597Z,80.94
2022-09-17T22:44:22.507Z,81.09
2022-09-17T22:54:29.832Z,81.09
2022-09-17T23:04:36.977Z,81.38
2022-09-17T23:14:44.068Z,81.34
2022-09-17T23:24:51.130Z,81.47
2022-09-17T23:34:58.178Z,81.46
2022-09-17T23:45:06.263Z,81.48
2022-09-17T23:55:12.677Z,81.51
